sensor_id;sensor_type;location;lat;lon;timestamp;pressure;altitude;pressure_sealevel;temperature
65765;BMP180;52915;53.718;19.946;2022-12-29T00:00:14;99726.80;;;6.00
65765;BMP180;52915;53.718;19.946;2022-12-29T00:05:38;99724.00;;;6.10
65765;BMP180;52915;53.718;19.946;2022-12-29T00:10:42;99713.40;;;6.10
65765;BMP180;52915;53.718;19.946;2022-12-29T00:15:46;99716.60;;;6.10
65765;BMP180;52915;53.718;19.946;2022-12-29T00:20:54;99723.60;;;6.10
65765;BMP180;52915;53.718;19.946;2022-12-29T00:26:17;99717.60;;;6.20
65765;BMP180;52915;53.718;19.946;2022-12-29T00:31:39;99715.00;;;6.20
65765;BMP180;52915;53.718;19.946;2022-12-29T00:37:02;99710.80;;;6.20
65765;BMP180;52915;53.718;19.946;2022-12-29T00:42:08;99711.40;;;6.20
65765;BMP180;52915;53.718;19.946;2022-12-29T00:47:31;99710.60;;;6.20
65765;BMP180;52915;53.718;19.946;2022-12-29T00:52:36;99705.20;;;6.20
65765;BMP180;52915;53.718;19.946;2022-12-29T00:57:40;99705.20;;;6.20
65765;BMP180;52915;53.718;19.946;2022-12-29T01:02:44;99699.00;;;6.20
65765;BMP180;52915;53.718;19.946;2022-12-29T01:07:49;99706.80;;;6.18
65765;BMP180;52915;53.718;19.946;2022-12-29T01:12:53;99702.80;;;6.10
65765;BMP180;52915;53.718;19.946;2022-12-29T01:17:57;99700.20;;;6.10
65765;BMP180;52915;53.718;19.946;2022-12-29T01:23:01;99696.40;;;6.10
65765;BMP180;52915;53.718;19.946;2022-12-29T01:28:05;99684.60;;;6.00
65765;BMP180;52915;53.718;19.946;2022-12-29T01:33:09;99681.20;;;6.00
65765;BMP180;52915;53.718;19.946;2022-12-29T01:38:13;99674.80;;;6.00
65765;BMP180;52915;53.718;19.946;2022-12-29T01:43:16;99666.20;;;6.00
65765;BMP180;52915;53.718;19.946;2022-12-29T01:48:20;99658.00;;;6.00
65765;BMP180;52915;53.718;19.946;2022-12-29T01:53:33;99650.20;;;5.96
65765;BMP180;52915;53.718;19.946;2022-12-29T01:58:44;99650.40;;;5.92
65765;BMP180;52915;53.718;19.946;2022-12-29T02:03:51;99650.20;;;5.96
65765;BMP180;52915;53.718;19.946;2022-12-29T02:08:56;99643.80;;;5.90
65765;BMP180;52915;53.718;19.946;2022-12-29T02:14:01;99647.80;;;5.90
65765;BMP180;52915;53.718;19.946;2022-12-29T02:31:07;99641.20;;;5.90
65765;BMP180;52915;53.718;19.946;2022-12-29T02:36:47;99639.80;;;5.90
65765;BMP180;52915;53.718;19.946;2022-12-29T02:47:27;99622.60;;;5.90
65765;BMP180;52915;53.718;19.946;2022-12-29T02:52:57;99607.80;;;5.90
65765;BMP180;52915;53.718;19.946;2022-12-29T02:58:22;99628.20;;;5.90
65765;BMP180;52915;53.718;19.946;2022-12-29T03:03:48;99627.20;;;5.90
65765;BMP180;52915;53.718;19.946;2022-12-29T03:14:39;99619.40;;;5.90
65765;BMP180;52915;53.718;19.946;2022-12-29T03:20:09;99629.40;;;5.90
65765;BMP180;52915;53.718;19.946;2022-12-29T03:25:44;99621.00;;;5.90
65765;BMP180;52915;53.718;19.946;2022-12-29T03:30:50;99603.40;;;5.90
65765;BMP180;52915;53.718;19.946;2022-12-29T03:36:01;99616.40;;;5.90
65765;BMP180;52915;53.718;19.946;2022-12-29T03:41:12;99613.60;;;5.90
65765;BMP180;52915;53.718;19.946;2022-12-29T03:46:17;99601.40;;;5.90
65765;BMP180;52915;53.718;19.946;2022-12-29T03:51:21;99580.60;;;5.90
65765;BMP180;52915;53.718;19.946;2022-12-29T03:56:25;99572.40;;;5.90
65765;BMP180;52915;53.718;19.946;2022-12-29T04:01:29;99581.00;;;5.90
65765;BMP180;52915;53.718;19.946;2022-12-29T04:06:33;99596.40;;;5.90
65765;BMP180;52915;53.718;19.946;2022-12-29T04:11:37;99584.40;;;5.90
65765;BMP180;52915;53.718;19.946;2022-12-29T04:16:41;99584.00;;;5.90
65765;BMP180;52915;53.718;19.946;2022-12-29T04:21:45;99578.60;;;5.90
65765;BMP180;52915;53.718;19.946;2022-12-29T04:26:49;99568.00;;;5.84
65765;BMP180;52915;53.718;19.946;2022-12-29T04:31:53;99553.60;;;5.80
65765;BMP180;52915;53.718;19.946;2022-12-29T04:36:56;99547.20;;;5.80
65765;BMP180;52915;53.718;19.946;2022-12-29T04:42:00;99547.80;;;5.70
65765;BMP180;52915;53.718;19.946;2022-12-29T04:47:04;99555.20;;;5.70
65765;BMP180;52915;53.718;19.946;2022-12-29T04:52:08;99556.40;;;5.80
65765;BMP180;52915;53.718;19.946;2022-12-29T04:57:11;99567.40;;;5.90
65765;BMP180;52915;53.718;19.946;2022-12-29T05:02:17;99561.80;;;5.94
65765;BMP180;52915;53.718;19.946;2022-12-29T05:07:21;99554.40;;;6.00
65765;BMP180;52915;53.718;19.946;2022-12-29T05:12:24;99553.60;;;6.00
65765;BMP180;52915;53.718;19.946;2022-12-29T05:17:29;99546.00;;;6.10
65765;BMP180;52915;53.718;19.946;2022-12-29T05:22:33;99540.40;;;6.10
65765;BMP180;52915;53.718;19.946;2022-12-29T05:27:37;99539.20;;;6.02
65765;BMP180;52915;53.718;19.946;2022-12-29T05:32:41;99534.40;;;6.00
65765;BMP180;52915;53.718;19.946;2022-12-29T05:37:45;99521.80;;;5.90
65765;BMP180;52915;53.718;19.946;2022-12-29T05:42:49;99505.00;;;5.90
65765;BMP180;52915;53.718;19.946;2022-12-29T05:47:53;99510.40;;;5.90
65765;BMP180;52915;53.718;19.946;2022-12-29T05:52:56;99516.60;;;5.90
65765;BMP180;52915;53.718;19.946;2022-12-29T05:58:00;99518.80;;;5.90
65765;BMP180;52915;53.718;19.946;2022-12-29T06:03:04;99511.00;;;5.90
65765;BMP180;52915;53.718;19.946;2022-12-29T06:08:09;99510.60;;;5.90
65765;BMP180;52915;53.718;19.946;2022-12-29T06:13:13;99504.80;;;5.90
65765;BMP180;52915;53.718;19.946;2022-12-29T06:18:17;99494.20;;;5.90
65765;BMP180;52915;53.718;19.946;2022-12-29T06:23:22;99497.20;;;5.96
65765;BMP180;52915;53.718;19.946;2022-12-29T06:28:26;99490.80;;;5.90
65765;BMP180;52915;53.718;19.946;2022-12-29T06:33:30;99486.20;;;6.00
65765;BMP180;52915;53.718;19.946;2022-12-29T06:38:34;99480.20;;;5.96
65765;BMP180;52915;53.718;19.946;2022-12-29T06:43:39;99468.20;;;6.00
65765;BMP180;52915;53.718;19.946;2022-12-29T06:48:43;99462.20;;;6.00
65765;BMP180;52915;53.718;19.946;2022-12-29T06:53:47;99472.80;;;6.00
65765;BMP180;52915;53.718;19.946;2022-12-29T06:58:51;99467.40;;;5.90
65765;BMP180;52915;53.718;19.946;2022-12-29T07:03:55;99466.00;;;5.90
65765;BMP180;52915;53.718;19.946;2022-12-29T07:08:59;99470.80;;;5.88
65765;BMP180;52915;53.718;19.946;2022-12-29T07:14:03;99483.40;;;5.86
65765;BMP180;52915;53.718;19.946;2022-12-29T07:19:07;99483.00;;;5.90
65765;BMP180;52915;53.718;19.946;2022-12-29T07:24:11;99470.40;;;6.00
65765;BMP180;52915;53.718;19.946;2022-12-29T07:29:16;99474.80;;;6.00
65765;BMP180;52915;53.718;19.946;2022-12-29T07:34:19;99480.60;;;6.00
65765;BMP180;52915;53.718;19.946;2022-12-29T07:39:23;99481.80;;;6.00
65765;BMP180;52915;53.718;19.946;2022-12-29T07:44:27;99480.60;;;6.10
65765;BMP180;52915;53.718;19.946;2022-12-29T07:49:32;99465.20;;;6.10
65765;BMP180;52915;53.718;19.946;2022-12-29T07:54:37;99463.40;;;6.20
65765;BMP180;52915;53.718;19.946;2022-12-29T08:09:36;99503.80;;;6.50
65765;BMP180;52915;53.718;19.946;2022-12-29T08:14:40;99500.20;;;6.50
65765;BMP180;52915;53.718;19.946;2022-12-29T08:19:43;99493.80;;;6.50
65765;BMP180;52915;53.718;19.946;2022-12-29T08:24:48;99487.20;;;6.50
65765;BMP180;52915;53.718;19.946;2022-12-29T08:29:53;99481.80;;;6.56
65765;BMP180;52915;53.718;19.946;2022-12-29T08:34:57;99488.40;;;6.60
65765;BMP180;52915;53.718;19.946;2022-12-29T08:40:02;99491.80;;;6.70
65765;BMP180;52915;53.718;19.946;2022-12-29T08:45:08;99492.60;;;6.70
65765;BMP180;52915;53.718;19.946;2022-12-29T08:50:12;99480.80;;;6.80
65765;BMP180;52915;53.718;19.946;2022-12-29T08:55:16;99486.80;;;6.80
65765;BMP180;52915;53.718;19.946;2022-12-29T09:00:20;99486.60;;;6.80
65765;BMP180;52915;53.718;19.946;2022-12-29T09:05:24;99484.00;;;6.80
65765;BMP180;52915;53.718;19.946;2022-12-29T09:10:28;99487.00;;;6.90
65765;BMP180;52915;53.718;19.946;2022-12-29T09:15:31;99472.00;;;6.90
65765;BMP180;52915;53.718;19.946;2022-12-29T09:20:36;99460.20;;;7.10
65765;BMP180;52915;53.718;19.946;2022-12-29T09:25:40;99454.00;;;7.40
65765;BMP180;52915;53.718;19.946;2022-12-29T09:30:47;99466.60;;;7.56
65765;BMP180;52915;53.718;19.946;2022-12-29T09:35:55;99469.00;;;7.40
65765;BMP180;52915;53.718;19.946;2022-12-29T09:41:18;99468.60;;;7.32
65765;BMP180;52915;53.718;19.946;2022-12-29T09:46:28;99466.40;;;7.30
65765;BMP180;52915;53.718;19.946;2022-12-29T09:51:37;99460.60;;;7.30
65765;BMP180;52915;53.718;19.946;2022-12-29T09:56:44;99441.60;;;7.30
65765;BMP180;52915;53.718;19.946;2022-12-29T10:07:40;99436.80;;;7.44
65765;BMP180;52915;53.718;19.946;2022-12-29T10:13:34;99437.00;;;7.54
65765;BMP180;52915;53.718;19.946;2022-12-29T10:18:37;99444.20;;;7.60
65765;BMP180;52915;53.718;19.946;2022-12-29T10:23:50;99422.20;;;7.70
65765;BMP180;52915;53.718;19.946;2022-12-29T10:29:03;99405.00;;;8.38
65765;BMP180;52915;53.718;19.946;2022-12-29T10:34:29;99413.00;;;10.32
65765;BMP180;52915;53.718;19.946;2022-12-29T10:39:52;99400.00;;;9.30
65765;BMP180;52915;53.718;19.946;2022-12-29T10:44:58;99385.80;;;9.84
65765;BMP180;52915;53.718;19.946;2022-12-29T10:50:04;99407.40;;;9.90
65765;BMP180;52915;53.718;19.946;2022-12-29T10:55:28;99407.20;;;9.60
65765;BMP180;52915;53.718;19.946;2022-12-29T11:00:35;99393.80;;;9.20
65765;BMP180;52915;53.718;19.946;2022-12-29T11:11:10;99394.60;;;8.80
65765;BMP180;52915;53.718;19.946;2022-12-29T11:16:13;99402.40;;;8.70
65765;BMP180;52915;53.718;19.946;2022-12-29T11:26:32;99406.00;;;8.62
65765;BMP180;52915;53.718;19.946;2022-12-29T11:31:53;99401.40;;;8.60
65765;BMP180;52915;53.718;19.946;2022-12-29T11:37:04;99389.80;;;8.60
65765;BMP180;52915;53.718;19.946;2022-12-29T11:42:18;99386.00;;;8.60
65765;BMP180;52915;53.718;19.946;2022-12-29T11:47:29;99385.00;;;8.60
65765;BMP180;52915;53.718;19.946;2022-12-29T11:52:37;99379.60;;;8.50
65765;BMP180;52915;53.718;19.946;2022-12-29T11:57:44;99386.40;;;8.46
65765;BMP180;52915;53.718;19.946;2022-12-29T12:03:04;99395.60;;;8.40
65765;BMP180;52915;53.718;19.946;2022-12-29T12:08:33;99390.00;;;8.30
65765;BMP180;52915;53.718;19.946;2022-12-29T12:14:02;99388.00;;;8.30
65765;BMP180;52915;53.718;19.946;2022-12-29T12:19:32;99382.20;;;8.30
65765;BMP180;52915;53.718;19.946;2022-12-29T12:24:54;99369.20;;;8.36
65765;BMP180;52915;53.718;19.946;2022-12-29T12:30:14;99357.00;;;8.70
65765;BMP180;52915;53.718;19.946;2022-12-29T12:35:57;99347.00;;;8.86
65765;BMP180;52915;53.718;19.946;2022-12-29T13:03:08;99364.00;;;8.50
65765;BMP180;52915;53.718;19.946;2022-12-29T13:08:36;99366.80;;;8.50
65765;BMP180;52915;53.718;19.946;2022-12-29T13:30:05;99380.40;;;8.30
65765;BMP180;52915;53.718;19.946;2022-12-29T13:35:53;99382.00;;;8.20
65765;BMP180;52915;53.718;19.946;2022-12-29T13:41:37;99370.60;;;8.20
65765;BMP180;52915;53.718;19.946;2022-12-29T13:46:45;99377.60;;;8.20
65765;BMP180;52915;53.718;19.946;2022-12-29T13:51:54;99375.60;;;8.20
65765;BMP180;52915;53.718;19.946;2022-12-29T13:57:03;99379.60;;;8.20
65765;BMP180;52915;53.718;19.946;2022-12-29T14:02:19;99378.60;;;8.20
65765;BMP180;52915;53.718;19.946;2022-12-29T14:07:25;99377.60;;;8.20
65765;BMP180;52915;53.718;19.946;2022-12-29T14:12:42;99368.00;;;8.30
65765;BMP180;52915;53.718;19.946;2022-12-29T14:28:24;99379.60;;;8.40
65765;BMP180;52915;53.718;19.946;2022-12-29T14:33:31;99384.00;;;8.40
65765;BMP180;52915;53.718;19.946;2022-12-29T14:38:45;99385.20;;;8.50
65765;BMP180;52915;53.718;19.946;2022-12-29T14:44:19;99386.20;;;8.50
65765;BMP180;52915;53.718;19.946;2022-12-29T14:49:31;99381.60;;;8.56
65765;BMP180;52915;53.718;19.946;2022-12-29T14:54:48;99373.40;;;8.60
65765;BMP180;52915;53.718;19.946;2022-12-29T15:00:33;99376.80;;;8.60
65765;BMP180;52915;53.718;19.946;2022-12-29T15:05:45;99382.40;;;8.60
65765;BMP180;52915;53.718;19.946;2022-12-29T15:11:09;99381.20;;;8.62
65765;BMP180;52915;53.718;19.946;2022-12-29T15:16:25;99387.00;;;8.70
65765;BMP180;52915;53.718;19.946;2022-12-29T15:21:34;99385.80;;;8.62
65765;BMP180;52915;53.718;19.946;2022-12-29T15:26:45;99388.00;;;8.70
65765;BMP180;52915;53.718;19.946;2022-12-29T15:31:50;99380.60;;;8.70
65765;BMP180;52915;53.718;19.946;2022-12-29T15:36:54;99379.80;;;8.70
65765;BMP180;52915;53.718;19.946;2022-12-29T15:47:44;99390.00;;;8.70
65765;BMP180;52915;53.718;19.946;2022-12-29T15:52:57;99385.60;;;8.70
65765;BMP180;52915;53.718;19.946;2022-12-29T15:58:16;99377.40;;;8.60
65765;BMP180;52915;53.718;19.946;2022-12-29T16:03:25;99376.20;;;8.60
65765;BMP180;52915;53.718;19.946;2022-12-29T16:08:38;99376.20;;;8.50
65765;BMP180;52915;53.718;19.946;2022-12-29T16:13:44;99390.20;;;8.50
65765;BMP180;52915;53.718;19.946;2022-12-29T16:18:51;99391.80;;;8.50
65765;BMP180;52915;53.718;19.946;2022-12-29T16:24:30;99386.80;;;8.50
65765;BMP180;52915;53.718;19.946;2022-12-29T16:29:33;99393.20;;;8.50
65765;BMP180;52915;53.718;19.946;2022-12-29T16:39:41;99389.00;;;8.46
65765;BMP180;52915;53.718;19.946;2022-12-29T16:44:46;99400.80;;;8.44
65765;BMP180;52915;53.718;19.946;2022-12-29T16:49:53;99397.60;;;8.40
65765;BMP180;52915;53.718;19.946;2022-12-29T16:54:59;99402.40;;;8.40
65765;BMP180;52915;53.718;19.946;2022-12-29T17:00:19;99398.20;;;8.40
65765;BMP180;52915;53.718;19.946;2022-12-29T17:05:25;99403.00;;;8.50
65765;BMP180;52915;53.718;19.946;2022-12-29T17:10:33;99410.40;;;8.50
65765;BMP180;52915;53.718;19.946;2022-12-29T17:15:56;99418.20;;;8.50
65765;BMP180;52915;53.718;19.946;2022-12-29T17:21:02;99415.40;;;8.50
65765;BMP180;52915;53.718;19.946;2022-12-29T17:26:08;99408.40;;;8.60
65765;BMP180;52915;53.718;19.946;2022-12-29T17:31:13;99405.00;;;8.56
65765;BMP180;52915;53.718;19.946;2022-12-29T17:36:17;99404.20;;;8.50
65765;BMP180;52915;53.718;19.946;2022-12-29T17:41:21;99411.80;;;8.50
65765;BMP180;52915;53.718;19.946;2022-12-29T17:46:26;99412.80;;;8.50
65765;BMP180;52915;53.718;19.946;2022-12-29T17:51:30;99399.60;;;8.50
65765;BMP180;52915;53.718;19.946;2022-12-29T17:56:33;99407.20;;;8.60
65765;BMP180;52915;53.718;19.946;2022-12-29T18:01:40;99402.40;;;8.60
65765;BMP180;52915;53.718;19.946;2022-12-29T18:06:48;99401.40;;;8.60
65765;BMP180;52915;53.718;19.946;2022-12-29T18:11:55;99409.20;;;8.60
65765;BMP180;52915;53.718;19.946;2022-12-29T18:16:59;99416.80;;;8.68
65765;BMP180;52915;53.718;19.946;2022-12-29T18:22:03;99431.60;;;8.70
65765;BMP180;52915;53.718;19.946;2022-12-29T18:27:14;99430.20;;;8.60
65765;BMP180;52915;53.718;19.946;2022-12-29T18:32:21;99443.20;;;8.50
65765;BMP180;52915;53.718;19.946;2022-12-29T18:37:26;99447.80;;;8.40
65765;BMP180;52915;53.718;19.946;2022-12-29T18:42:30;99456.60;;;8.30
65765;BMP180;52915;53.718;19.946;2022-12-29T18:47:34;99462.20;;;8.30
65765;BMP180;52915;53.718;19.946;2022-12-29T18:52:38;99455.40;;;8.30
65765;BMP180;52915;53.718;19.946;2022-12-29T18:57:43;99454.80;;;8.30
65765;BMP180;52915;53.718;19.946;2022-12-29T19:02:51;99453.20;;;8.30
65765;BMP180;52915;53.718;19.946;2022-12-29T19:07:55;99467.80;;;8.20
65765;BMP180;52915;53.718;19.946;2022-12-29T19:12:59;99470.60;;;8.20
65765;BMP180;52915;53.718;19.946;2022-12-29T19:18:06;99456.00;;;8.12
65765;BMP180;52915;53.718;19.946;2022-12-29T19:23:33;99451.20;;;8.00
65765;BMP180;52915;53.718;19.946;2022-12-29T19:28:37;99460.60;;;7.94
65765;BMP180;52915;53.718;19.946;2022-12-29T19:33:41;99462.00;;;7.98
65765;BMP180;52915;53.718;19.946;2022-12-29T19:38:45;99469.40;;;7.90
65765;BMP180;52915;53.718;19.946;2022-12-29T19:43:49;99468.00;;;7.98
65765;BMP180;52915;53.718;19.946;2022-12-29T19:48:54;99467.00;;;8.00
65765;BMP180;52915;53.718;19.946;2022-12-29T19:54:01;99467.40;;;8.00
65765;BMP180;52915;53.718;19.946;2022-12-29T19:59:05;99465.40;;;8.00
65765;BMP180;52915;53.718;19.946;2022-12-29T20:04:09;99471.20;;;8.00
65765;BMP180;52915;53.718;19.946;2022-12-29T20:09:15;99476.80;;;8.02
65765;BMP180;52915;53.718;19.946;2022-12-29T20:14:19;99478.80;;;8.10
65765;BMP180;52915;53.718;19.946;2022-12-29T20:19:24;99478.40;;;8.20
65765;BMP180;52915;53.718;19.946;2022-12-29T20:24:30;99478.80;;;8.20
65765;BMP180;52915;53.718;19.946;2022-12-29T20:29:38;99484.60;;;8.30
65765;BMP180;52915;53.718;19.946;2022-12-29T20:34:44;99489.80;;;8.20
65765;BMP180;52915;53.718;19.946;2022-12-29T20:39:48;99480.00;;;8.10
65765;BMP180;52915;53.718;19.946;2022-12-29T20:44:53;99485.60;;;8.00
65765;BMP180;52915;53.718;19.946;2022-12-29T20:49:57;99474.80;;;7.90
65765;BMP180;52915;53.718;19.946;2022-12-29T20:55:01;99469.60;;;7.80
65765;BMP180;52915;53.718;19.946;2022-12-29T21:00:15;99468.80;;;7.70
65765;BMP180;52915;53.718;19.946;2022-12-29T21:05:37;99471.40;;;7.70
65765;BMP180;52915;53.718;19.946;2022-12-29T21:10:45;99467.00;;;7.70
65765;BMP180;52915;53.718;19.946;2022-12-29T21:16:03;99469.60;;;7.70
65765;BMP180;52915;53.718;19.946;2022-12-29T21:21:29;99474.00;;;7.70
65765;BMP180;52915;53.718;19.946;2022-12-29T21:26:33;99482.80;;;7.80
65765;BMP180;52915;53.718;19.946;2022-12-29T21:31:38;99480.60;;;7.80
65765;BMP180;52915;53.718;19.946;2022-12-29T21:36:42;99493.00;;;7.90
65765;BMP180;52915;53.718;19.946;2022-12-29T21:41:46;99490.60;;;7.98
65765;BMP180;52915;53.718;19.946;2022-12-29T21:46:51;99488.80;;;7.96
65765;BMP180;52915;53.718;19.946;2022-12-29T21:51:55;99488.60;;;7.96
65765;BMP180;52915;53.718;19.946;2022-12-29T21:57:00;99488.00;;;8.00
65765;BMP180;52915;53.718;19.946;2022-12-29T22:02:32;99489.20;;;8.00
65765;BMP180;52915;53.718;19.946;2022-12-29T22:07:55;99481.40;;;8.02
65765;BMP180;52915;53.718;19.946;2022-12-29T22:13:19;99477.20;;;8.02
65765;BMP180;52915;53.718;19.946;2022-12-29T22:18:24;99480.60;;;8.00
65765;BMP180;52915;53.718;19.946;2022-12-29T22:23:28;99485.40;;;8.10
65765;BMP180;52915;53.718;19.946;2022-12-29T22:28:35;99498.60;;;8.10
65765;BMP180;52915;53.718;19.946;2022-12-29T22:33:44;99502.20;;;8.10
65765;BMP180;52915;53.718;19.946;2022-12-29T22:38:48;99505.00;;;8.10
65765;BMP180;52915;53.718;19.946;2022-12-29T22:43:53;99503.40;;;8.18
65765;BMP180;52915;53.718;19.946;2022-12-29T22:48:58;99512.80;;;8.20
65765;BMP180;52915;53.718;19.946;2022-12-29T22:54:01;99509.60;;;8.18
65765;BMP180;52915;53.718;19.946;2022-12-29T22:59:05;99512.00;;;8.10
65765;BMP180;52915;53.718;19.946;2022-12-29T23:04:09;99517.20;;;8.10
65765;BMP180;52915;53.718;19.946;2022-12-29T23:09:33;99522.60;;;8.08
65765;BMP180;52915;53.718;19.946;2022-12-29T23:14:38;99528.20;;;8.10
65765;BMP180;52915;53.718;19.946;2022-12-29T23:19:41;99532.80;;;8.10
65765;BMP180;52915;53.718;19.946;2022-12-29T23:24:45;99536.60;;;8.10
65765;BMP180;52915;53.718;19.946;2022-12-29T23:29:49;99540.60;;;8.10
65765;BMP180;52915;53.718;19.946;2022-12-29T23:34:53;99539.20;;;8.10
65765;BMP180;52915;53.718;19.946;2022-12-29T23:39:57;99531.60;;;8.10
65765;BMP180;52915;53.718;19.946;2022-12-29T23:45:01;99535.60;;;8.08
65765;BMP180;52915;53.718;19.946;2022-12-29T23:50:07;99533.60;;;8.00
65765;BMP180;52915;53.718;19.946;2022-12-29T23:55:11;99539.40;;;8.00
